Time,TemperatureF,DewpointF,PressureIn,WindDirection,WindDirectionDegrees,WindSpeedMPH,WindSpeedGustMPH,Humidity,HourlyPrecipIn,Conditions,Clouds,dailyrainin,SoftwareType,DateUTC
2013-05-01 00:00:00,68.3,29.2,29.84,NW,311,3.8,13.5,22,0.00,n/a,n/a,-99.99,Henriksen +1-Wire,2013-05-01 07:00:00,
2013-05-01 00:06:00,68.1,29.5,29.84,NW,313,6.5,12.3,23,0.00,n/a,n/a,-99.99,Henriksen +1-Wire,2013-05-01 07:06:00,
2013-05-01 00:12:00,67.9,29.7,29.84,NW,315,3.4,11.7,23,0.00,n/a,n/a,-99.99,Henriksen +1-Wire,2013-05-01 07:12:00,
2013-05-01 00:18:00,67.7,29.8,29.84,NW,311,4.6,12.3,23,0.00,n/a,n/a,-99.99,Henriksen +1-Wire,2013-05-01 07:18:00,
2013-05-01 00:24:00,67.5,29.9,29.84,NW,308,5.0,13.6,24,0.00,n/a,n/a,-99.99,Henriksen +1-Wire,2013-05-01 07:24:00,
2013-05-01 00:30:00,67.3,30.0,29.85,NW,309,4.4,13.6,24,0.00,n/a,n/a,-99.99,Henriksen +1-Wire,2013-05-01 07:30:00,
2013-05-01 00:36:00,67.1,30.0,29.85,NW,314,2.9,13.6,24,0.00,n/a,n/a,-99.99,Henriksen +1-Wire,2013-05-01 07:36:00,
2013-05-01 00:42:00,66.9,30.0,29.85,NW,307,5.0,10.9,24,0.00,n/a,n/a,-99.99,Henriksen +1-Wire,2013-05-01 07:42:00,
2013-05-01 00:48:00,66.7,30.1,29.85,NW,309,7.0,13.0,25,0.00,n/a,n/a,-99.99,Henriksen +1-Wire,2013-05-01 07:48:00,
2013-05-01 00:54:00,66.5,30.2,29.85,NW,306,4.3,13.6,25,0.00,n/a,n/a,-99.99,Henriksen +1-Wire,2013-05-01 07:54:00,
2013-05-01 01:00:00,66.3,30.5,29.86,NW,307,5.3,11.2,25,0.00,n/a,n/a,-99.99,Henriksen +1-Wire,2013-05-01 08:00:00,
2013-05-01 01:06:00,66.0,30.6,29.86,NW,307,4.3,12.3,26,0.00,n/a,n/a,-99.99,Henriksen +1-Wire,2013-05-01 08:06:00,
2013-05-01 01:12:00,65.7,30.7,29.86,WNW,300,4.4,12.3,26,0.00,n/a,n/a,-99.99,Henriksen +1-Wire,2013-05-01 08:12:00,
2013-05-01 01:18:00,65.4,30.9,29.86,NW,306,5.6,12.2,27,0.00,n/a,n/a,-99.99,Henriksen +1-Wire,2013-05-01 08:18:00,
2013-05-01 01:24:00,64.9,31.0,29.86,NW,305,4.5,12.3,27,0.00,n/a,n/a,-99.99,Henriksen +1-Wire,2013-05-01 08:24:00,
2013-05-01 01:30:00,64.6,31.3,29.86,WNW,303,3.3,10.4,28,0.00,n/a,n/a,-99.99,Henriksen +1-Wire,2013-05-01 08:30:00,
2013-05-01 01:36:00,64.3,31.4,29.86,WNW,301,4.4,10.3,28,0.00,n/a,n/a,-99.99,Henriksen +1-Wire,2013-05-01 08:36:00,
2013-05-01 01:42:00,64.0,31.4,29.86,WNW,296,4.8,11.0,29,0.00,n/a,n/a,-99.99,Henriksen +1-Wire,2013-05-01 08:42:00,
2013-05-01 01:48:00,63.7,31.4,29.86,NW,305,3.7,12.3,29,0.00,n/a,n/a,-99.99,Henriksen +1-Wire,2013-05-01 08:48:00,
2013-05-01 01:54:00,63.5,31.6,29.86,NW,308,4.5,8.4,29,0.00,n/a,n/a,-99.99,Henriksen +1-Wire,2013-05-01 08:54:00,
2013-05-01 02:00:00,63.3,31.6,29.87,NW,306,2.4,9.1,30,0.00,n/a,n/a,-99.99,Henriksen +1-Wire,2013-05-01 09:00:00,
2013-05-01 02:06:00,63.1,31.6,29.87,NW,305,6.3,11.7,30,0.00,n/a,n/a,-99.99,Henriksen +1-Wire,2013-05-01 09:06:00,
2013-05-01 02:12:00,63.1,31.6,29.87,NW,310,4.3,11.7,30,0.00,n/a,n/a,-99.99,Henriksen +1-Wire,2013-05-01 09:12:00,
2013-05-01 02:18:00,63.1,31.5,29.87,NW,312,5.7,13.6,30,0.00,n/a,n/a,-99.99,Henriksen +1-Wire,2013-05-01 09:18:00,
2013-05-01 02:24:00,63.2,31.4,29.87,NW,306,5.0,13.6,29,0.00,n/a,n/a,-99.99,Henriksen +1-Wire,2013-05-01 09:24:00,
2013-05-01 02:30:00,63.1,31.2,29.86,NW,307,4.6,13.0,29,0.00,n/a,n/a,-99.99,Henriksen +1-Wire,2013-05-01 09:30:00,
2013-05-01 02:36:00,63.0,31.0,29.86,NW,315,4.9,11.0,29,0.00,n/a,n/a,-99.99,Henriksen +1-Wire,2013-05-01 09:36:00,
2013-05-01 02:42:00,62.9,31.0,29.87,NW,312,4.2,10.4,29,0.00,n/a,n/a,-99.99,Henriksen +1-Wire,2013-05-01 09:42:00,
2013-05-01 02:48:00,62.9,30.9,29.87,NW,312,3.3,9.7,29,0.00,n/a,n/a,-99.99,Henriksen +1-Wire,2013-05-01 09:48:00,
2013-05-01 02:54:00,62.8,30.8,29.87,NW,305,5.2,9.7,29,0.00,n/a,n/a,-99.99,Henriksen +1-Wire,2013-05-01 09:54:00,
2013-05-01 03:00:00,62.7,30.8,29.87,NW,314,5.2,9.7,29,0.00,n/a,n/a,-99.99,Henriksen +1-Wire,2013-05-01 10:00:00,
2013-05-01 03:06:00,62.7,30.6,29.87,NW,310,3.4,10.1,29,0.00,n/a,n/a,-99.99,Henriksen +1-Wire,2013-05-01 10:06:00,
2013-05-01 03:12:00,62.6,30.5,29.87,NW,324,3.9,9.1,29,0.00,n/a,n/a,-99.99,Henriksen +1-Wire,2013-05-01 10:12:00,
2013-05-01 03:24:00,62.4,30.4,29.87,NW,305,4.7,11.7,29,0.00,n/a,n/a,-99.99,Henriksen +1-Wire,2013-05-01 10:24:00,
2013-05-01 03:30:00,62.3,30.4,29.87,NW,314,5.4,10.4,29,0.00,n/a,n/a,-99.99,Henriksen +1-Wire,2013-05-01 10:30:00,
2013-05-01 03:36:00,62.1,30.4,29.87,NW,313,4.5,10.7,29,0.00,n/a,n/a,-99.99,Henriksen +1-Wire,2013-05-01 10:36:00,
2013-05-01 03:42:00,61.9,30.4,29.87,NW,324,5.0,10.4,30,0.00,n/a,n/a,-99.99,Henriksen +1-Wire,2013-05-01 10:42:00,
2013-05-01 03:48:00,61.6,30.5,29.87,NW,322,4.4,9.7,30,0.00,n/a,n/a,-99.99,Henriksen +1-Wire,2013-05-01 10:48:00,
2013-05-01 03:54:00,61.4,30.7,29.87,NW,323,6.4,10.4,31,0.00,n/a,n/a,-99.99,Henriksen +1-Wire,2013-05-01 10:54:00,
2013-05-01 04:00:00,61.2,30.8,29.87,NW,323,4.5,10.4,31,0.00,n/a,n/a,-99.99,Henriksen +1-Wire,2013-05-01 11:00:00,
2013-05-01 04:06:00,61.0,30.8,29.87,NW,324,5.2,11.0,31,0.00,n/a,n/a,-99.99,Henriksen +1-Wire,2013-05-01 11:06:00,
2013-05-01 04:12:00,60.8,30.8,29.87,NW,322,4.4,11.0,31,0.00,n/a,n/a,-99.99,Henriksen +1-Wire,2013-05-01 11:12:00,
2013-05-01 04:18:00,60.5,30.9,29.88,NW,318,5.3,9.8,32,0.00,n/a,n/a,-99.99,Henriksen +1-Wire,2013-05-01 11:18:00,
2013-05-01 04:24:00,60.2,31.0,29.88,NW,323,4.7,11.7,32,0.00,n/a,n/a,-99.99,Henriksen +1-Wire,2013-05-01 11:24:00,
2013-05-01 04:30:00,59.9,31.2,29.88,NW,324,6.7,11.7,33,0.00,n/a,n/a,-99.99,Henriksen +1-Wire,2013-05-01 11:30:00,
2013-05-01 04:36:00,59.6,31.3,29.88,NW,324,6.8,14.2,33,0.00,n/a,n/a,-99.99,Henriksen +1-Wire,2013-05-01 11:36:00,
2013-05-01 04:42:00,59.5,31.4,29.88,NW,324,6.9,16.9,34,0.00,n/a,n/a,-99.99,Henriksen +1-Wire,2013-05-01 11:42:00,
2013-05-01 04:48:00,59.4,31.3,29.88,NW,320,5.4,16.9,34,0.00,n/a,n/a,-99.99,Henriksen +1-Wire,2013-05-01 11:48:00,
2013-05-01 04:54:00,59.5,31.2,29.88,NW,314,4.9,10.4,33,0.00,n/a,n/a,-99.99,Henriksen +1-Wire,2013-05-01 11:54:00,
2013-05-01 05:00:00,59.5,31.1,29.88,NW,313,4.6,10.4,33,0.00,n/a,n/a,-99.99,Henriksen +1-Wire,2013-05-01 12:00:00,
2013-05-01 05:06:00,59.5,30.9,29.88,NW,310,4.7,9.7,33,0.00,n/a,n/a,-99.99,Henriksen +1-Wire,2013-05-01 12:06:00,
2013-05-01 05:12:00,59.3,30.7,29.88,NW,321,5.1,11.7,33,0.00,n/a,n/a,-99.99,Henriksen +1-Wire,2013-05-01 12:12:00,
2013-05-01 05:18:00,59.2,30.6,29.88,NW,324,5.1,11.7,33,0.00,n/a,n/a,-99.99,Henriksen +1-Wire,2013-05-01 12:18:00,
2013-05-01 05:24:00,59.2,30.5,29.88,NNW,327,5.4,13.5,33,0.00,n/a,n/a,-99.99,Henriksen +1-Wire,2013-05-01 12:24:00,
2013-05-01 05:30:00,59.3,30.3,29.89,NW,321,5.3,15.6,32,0.00,n/a,n/a,-99.99,Henriksen +1-Wire,2013-05-01 12:30:00,
2013-05-01 05:36:00,59.3,30.2,29.88,NW,318,4.8,15.6,32,0.00,n/a,n/a,-99.99,Henriksen +1-Wire,2013-05-01 12:36:00,
2013-05-01 05:42:00,59.3,29.9,29.88,NW,316,4.7,11.7,32,0.00,n/a,n/a,-99.99,Henriksen +1-Wire,2013-05-01 12:42:00,
2013-05-01 05:48:00,59.2,29.8,29.89,NW,318,6.1,13.6,32,0.00,n/a,n/a,-99.99,Henriksen +1-Wire,2013-05-01 12:48:00,
2013-05-01 05:54:00,59.0,29.6,29.89,NW,325,4.7,13.6,32,0.00,n/a,n/a,-99.99,Henriksen +1-Wire,2013-05-01 12:54:00,
2013-05-01 06:00:00,58.9,29.5,29.89,NNW,328,5.3,15.0,32,0.00,n/a,n/a,-99.99,Henriksen +1-Wire,2013-05-01 13:00:00,
2013-05-01 06:06:00,58.9,29.5,29.89,NNW,328,6.5,15.0,32,0.00,n/a,n/a,-99.99,Henriksen +1-Wire,2013-05-01 13:06:00,
2013-05-01 06:12:00,58.8,29.4,29.89,NW,322,8.0,14.9,32,0.00,n/a,n/a,-99.99,Henriksen +1-Wire,2013-05-01 13:12:00,
2013-05-01 06:18:00,58.6,29.3,29.89,NW,325,5.8,14.9,32,0.00,n/a,n/a,-99.99,Henriksen +1-Wire,2013-05-01 13:18:00,
2013-05-01 06:24:00,58.5,29.2,29.89,NW,318,4.5,12.3,32,0.00,n/a,n/a,-99.99,Henriksen +1-Wire,2013-05-01 13:24:00,
2013-05-01 06:30:00,58.3,29.3,29.90,NW,320,2.8,10.0,32,0.00,n/a,n/a,-99.99,Henriksen +1-Wire,2013-05-01 13:30:00,
2013-05-01 06:36:00,58.2,29.3,29.90,NW,316,4.2,10.0,32,0.00,n/a,n/a,-99.99,Henriksen +1-Wire,2013-05-01 13:36:00,
2013-05-01 06:42:00,58.1,29.3,29.90,NW,323,3.5,8.1,33,0.00,n/a,n/a,-99.99,Henriksen +1-Wire,2013-05-01 13:42:00,
2013-05-01 06:48:00,58.1,29.3,29.90,NW,323,3.7,9.1,33,0.00,n/a,n/a,-99.99,Henriksen +1-Wire,2013-05-01 13:48:00,
2013-05-01 06:54:00,58.1,29.2,29.90,NW,320,2.0,9.1,33,0.00,n/a,n/a,-99.99,Henriksen +1-Wire,2013-05-01 13:54:00,
2013-05-01 07:00:00,58.0,29.6,29.91,NW,315,2.2,7.1,33,0.00,n/a,n/a,-99.99,Henriksen +1-Wire,2013-05-01 14:00:00,
2013-05-01 07:06:00,57.9,29.9,29.91,NW,318,1.0,6.1,34,0.00,n/a,n/a,-99.99,Henriksen +1-Wire,2013-05-01 14:06:00,
2013-05-01 07:12:00,58.0,29.9,29.92,NNW,327,2.5,6.4,33,0.00,n/a,n/a,-99.99,Henriksen +1-Wire,2013-05-01 14:12:00,
2013-05-01 07:18:00,58.2,29.9,29.92,NW,325,4.2,11.0,33,0.00,n/a,n/a,-99.99,Henriksen +1-Wire,2013-05-01 14:18:00,
2013-05-01 07:24:00,58.5,30.0,29.92,NW,321,3.1,11.0,33,0.00,n/a,n/a,-99.99,Henriksen +1-Wire,2013-05-01 14:24:00,
2013-05-01 07:30:00,58.7,30.1,29.93,NW,322,3.0,7.2,33,0.00,n/a,n/a,-99.99,Henriksen +1-Wire,2013-05-01 14:30:00,
2013-05-01 07:36:00,59.0,30.2,29.93,NNW,328,1.6,6.5,33,0.00,n/a,n/a,-99.99,Henriksen +1-Wire,2013-05-01 14:36:00,
2013-05-01 07:42:00,59.2,30.6,29.93,NW,318,2.1,6.0,33,0.00,n/a,n/a,-99.99,Henriksen +1-Wire,2013-05-01 14:42:00,
2013-05-01 07:48:00,59.6,31.0,29.93,NW,309,2.7,9.1,33,0.00,n/a,n/a,-99.99,Henriksen +1-Wire,2013-05-01 14:48:00,
2013-05-01 07:54:00,59.8,31.2,29.93,NW,325,4.5,10.4,33,0.00,n/a,n/a,-99.99,Henriksen +1-Wire,2013-05-01 14:54:00,
2013-05-01 08:00:00,60.4,31.5,29.93,NW,320,4.5,10.4,33,0.00,n/a,n/a,-99.99,Henriksen +1-Wire,2013-05-01 15:00:00,
2013-05-01 08:06:00,60.9,31.8,29.94,NW,320,3.9,9.7,32,0.00,n/a,n/a,-99.99,Henriksen +1-Wire,2013-05-01 15:06:00,
2013-05-01 08:12:00,61.5,31.8,29.94,NW,314,6.3,11.7,32,0.00,n/a,n/a,-99.99,Henriksen +1-Wire,2013-05-01 15:12:00,
2013-05-01 08:18:00,62.4,32.0,29.95,NW,316,5.6,12.3,31,0.00,n/a,n/a,-99.99,Henriksen +1-Wire,2013-05-01 15:18:00,
2013-05-01 08:24:00,63.2,31.7,29.94,NW,321,6.4,14.9,30,0.00,n/a,n/a,-99.99,Henriksen +1-Wire,2013-05-01 15:24:00,
2013-05-01 08:30:00,63.9,31.5,29.94,NW,326,4.5,13.0,29,0.00,n/a,n/a,-99.99,Henriksen +1-Wire,2013-05-01 15:30:00,
2013-05-01 08:36:00,64.5,31.5,29.95,NW,322,4.3,12.3,28,0.00,n/a,n/a,-99.99,Henriksen +1-Wire,2013-05-01 15:36:00,
2013-05-01 08:42:00,65.4,31.8,29.95,NW,320,6.0,11.6,28,0.00,n/a,n/a,-99.99,Henriksen +1-Wire,2013-05-01 15:42:00,
2013-05-01 08:48:00,65.9,31.9,29.95,NW,316,4.6,12.3,27,0.00,n/a,n/a,-99.99,Henriksen +1-Wire,2013-05-01 15:48:00,
2013-05-01 08:54:00,66.5,32.0,29.95,NW,315,4.6,12.9,27,0.00,n/a,n/a,-99.99,Henriksen +1-Wire,2013-05-01 15:54:00,
2013-05-01 09:00:00,67.1,32.0,29.95,NW,325,2.6,11.7,26,0.00,n/a,n/a,-99.99,Henriksen +1-Wire,2013-05-01 16:00:00,
2013-05-01 09:06:00,67.6,32.4,29.95,NNW,333,8.1,14.1,26,0.00,n/a,n/a,-99.99,Henriksen +1-Wire,2013-05-01 16:06:00,
2013-05-01 09:12:00,68.0,32.5,29.95,NNW,327,4.3,13.0,26,0.00,n/a,n/a,-99.99,Henriksen +1-Wire,2013-05-01 16:12:00,
2013-05-01 09:18:00,68.4,32.4,29.95,NNW,331,6.7,13.0,25,0.00,n/a,n/a,-99.99,Henriksen +1-Wire,2013-05-01 16:18:00,
2013-05-01 09:24:00,68.8,32.4,29.95,NNW,346,7.0,15.6,25,0.00,n/a,n/a,-99.99,Henriksen +1-Wire,2013-05-01 16:24:00,
2013-05-01 09:30:00,69.4,32.4,29.96,NNW,333,7.1,17.5,25,0.00,n/a,n/a,-99.99,Henriksen +1-Wire,2013-05-01 16:30:00,
2013-05-01 09:36:00,69.9,32.5,29.96,NNW,329,4.6,17.5,24,0.00,n/a,n/a,-99.99,Henriksen +1-Wire,2013-05-01 16:36:00,
2013-05-01 09:42:00,70.4,32.6,29.96,NNW,343,8.5,16.9,24,0.00,n/a,n/a,-99.99,Henriksen +1-Wire,2013-05-01 16:42:00,
2013-05-01 09:48:00,70.7,32.4,29.96,NNW,343,7.6,16.9,23,0.00,n/a,n/a,-99.99,Henriksen +1-Wire,2013-05-01 16:48:00,
2013-05-01 09:54:00,71.1,32.2,29.96,NW,326,5.5,14.9,23,0.00,n/a,n/a,-99.99,Henriksen +1-Wire,2013-05-01 16:54:00,
2013-05-01 10:00:00,71.7,32.6,29.96,NW,323,5.4,13.6,23,0.00,n/a,n/a,-99.99,Henriksen +1-Wire,2013-05-01 17:00:00,
2013-05-01 10:06:00,72.2,33.0,29.97,NW,320,8.4,18.0,23,0.00,n/a,n/a,-99.99,Henriksen +1-Wire,2013-05-01 17:06:00,
2013-05-01 10:12:00,72.7,33.3,29.97,NNW,337,6.5,18.0,23,0.00,n/a,n/a,-99.99,Henriksen +1-Wire,2013-05-01 17:12:00,
2013-05-01 10:18:00,73.0,33.4,29.98,NNW,330,6.9,14.2,22,0.00,n/a,n/a,-99.99,Henriksen +1-Wire,2013-05-01 17:18:00,
2013-05-01 10:24:00,73.4,33.3,29.98,NNW,343,6.8,14.2,22,0.00,n/a,n/a,-99.99,Henriksen +1-Wire,2013-05-01 17:24:00,
2013-05-01 10:30:00,73.8,33.4,29.98,NNW,330,4.6,13.0,22,0.00,n/a,n/a,-99.99,Henriksen +1-Wire,2013-05-01 17:30:00,
2013-05-01 10:36:00,74.7,33.9,29.98,NW,319,6.0,11.7,22,0.00,n/a,n/a,-99.99,Henriksen +1-Wire,2013-05-01 17:36:00,
2013-05-01 10:42:00,75.4,34.5,29.98,NW,324,4.8,11.0,22,0.00,n/a,n/a,-99.99,Henriksen +1-Wire,2013-05-01 17:42:00,
2013-05-01 10:48:00,76.3,35.3,29.99,NW,321,2.3,11.0,22,0.00,n/a,n/a,-99.99,Henriksen +1-Wire,2013-05-01 17:48:00,
2013-05-01 10:54:00,77.0,35.9,29.99,NNW,347,6.6,14.9,22,0.00,n/a,n/a,-99.99,Henriksen +1-Wire,2013-05-01 17:54:00,
2013-05-01 11:00:00,77.2,35.8,29.99,North,350,4.3,15.6,21,0.00,n/a,n/a,-99.99,Henriksen +1-Wire,2013-05-01 18:00:00,
2013-05-01 11:06:00,77.8,36.3,29.99,NW,323,3.7,11.0,22,0.00,n/a,n/a,-99.99,Henriksen +1-Wire,2013-05-01 18:06:00,
2013-05-01 11:12:00,77.9,36.3,29.99,NW,310,5.7,11.7,21,0.00,n/a,n/a,-99.99,Henriksen +1-Wire,2013-05-01 18:12:00,
2013-05-01 11:18:00,78.0,36.0,29.99,NW,319,4.9,11.7,21,0.00,n/a,n/a,-99.99,Henriksen +1-Wire,2013-05-01 18:18:00,
2013-05-01 11:24:00,78.1,35.6,30.00,NW,325,5.3,11.7,21,0.00,n/a,n/a,-99.99,Henriksen +1-Wire,2013-05-01 18:24:00,
2013-05-01 11:30:00,78.4,35.7,30.00,NW,321,4.3,12.0,21,0.00,n/a,n/a,-99.99,Henriksen +1-Wire,2013-05-01 18:30:00,
2013-05-01 11:36:00,78.5,35.8,30.00,NW,326,8.2,13.0,21,0.00,n/a,n/a,-99.99,Henriksen +1-Wire,2013-05-01 18:36:00,
2013-05-01 11:42:00,78.6,35.9,30.00,WNW,290,5.6,14.9,21,0.00,n/a,n/a,-99.99,Henriksen +1-Wire,2013-05-01 18:42:00,
2013-05-01 11:48:00,79.3,36.7,29.99,NW,311,4.4,11.0,21,0.00,n/a,n/a,-99.99,Henriksen +1-Wire,2013-05-01 18:48:00,
2013-05-01 11:54:00,79.6,36.9,29.99,NW,319,6.3,12.3,21,0.00,n/a,n/a,-99.99,Henriksen +1-Wire,2013-05-01 18:54:00,
2013-05-01 12:00:00,79.8,36.9,29.98,NW,326,7.2,13.0,21,0.00,n/a,n/a,-99.99,Henriksen +1-Wire,2013-05-01 19:00:00,
2013-05-01 12:06:00,80.1,37.2,29.98,NW,322,5.1,13.0,21,0.00,n/a,n/a,-99.99,Henriksen +1-Wire,2013-05-01 19:06:00,
2013-05-01 12:12:00,80.4,37.1,29.98,North,360,6.5,14.3,20,0.00,n/a,n/a,-99.99,Henriksen +1-Wire,2013-05-01 19:12:00,
2013-05-01 12:18:00,80.8,37.0,29.98,NW,319,5.2,13.0,20,0.00,n/a,n/a,-99.99,Henriksen +1-Wire,2013-05-01 19:18:00,
2013-05-01 12:24:00,81.3,37.3,29.98,NNW,328,5.7,12.4,20,0.00,n/a,n/a,-99.99,Henriksen +1-Wire,2013-05-01 19:24:00,
2013-05-01 12:30:00,81.8,37.5,29.99,NW,316,6.2,11.7,20,0.00,n/a,n/a,-99.99,Henriksen +1-Wire,2013-05-01 19:30:00,
2013-05-01 12:36:00,82.1,37.5,29.98,NW,315,3.7,11.7,19,0.00,n/a,n/a,-99.99,Henriksen +1-Wire,2013-05-01 19:36:00,
2013-05-01 12:42:00,82.4,37.4,29.98,NW,326,6.0,11.7,19,0.00,n/a,n/a,-99.99,Henriksen +1-Wire,2013-05-01 19:42:00,
2013-05-01 12:48:00,82.6,37.2,29.98,NNW,328,2.6,10.4,19,0.00,n/a,n/a,-99.99,Henriksen +1-Wire,2013-05-01 19:48:00,
2013-05-01 12:54:00,83.1,37.5,29.98,NW,316,3.9,11.0,19,0.00,n/a,n/a,-99.99,Henriksen +1-Wire,2013-05-01 19:54:00,
2013-05-01 13:00:00,83.7,38.4,29.98,NW,324,3.4,11.0,19,0.00,n/a,n/a,-99.99,Henriksen +1-Wire,2013-05-01 20:00:00,
2013-05-01 13:06:00,84.0,38.6,29.98,NNW,327,4.7,10.9,19,0.00,n/a,n/a,-99.99,Henriksen +1-Wire,2013-05-01 20:06:00,
2013-05-01 13:12:00,84.3,38.6,29.98,NW,309,5.1,12.2,19,0.00,n/a,n/a,-99.99,Henriksen +1-Wire,2013-05-01 20:12:00,
2013-05-01 13:18:00,84.5,38.6,29.98,NW,310,4.7,13.6,19,0.00,n/a,n/a,-99.99,Henriksen +1-Wire,2013-05-01 20:18:00,
2013-05-01 13:24:00,84.8,38.5,29.98,NW,318,4.2,13.6,19,0.00,n/a,n/a,-99.99,Henriksen +1-Wire,2013-05-01 20:24:00,
2013-05-01 13:30:00,84.8,38.3,29.98,NW,318,4.2,9.1,18,0.00,n/a,n/a,-99.99,Henriksen +1-Wire,2013-05-01 20:30:00,
2013-05-01 13:36:00,84.9,38.3,29.98,NW,315,3.2,9.1,18,0.00,n/a,n/a,-99.99,Henriksen +1-Wire,2013-05-01 20:36:00,
2013-05-01 13:42:00,85.2,38.6,29.98,NW,319,3.8,11.0,18,0.00,n/a,n/a,-99.99,Henriksen +1-Wire,2013-05-01 20:42:00,
2013-05-01 13:48:00,85.4,38.6,29.98,NW,311,5.2,13.0,18,0.00,n/a,n/a,-99.99,Henriksen +1-Wire,2013-05-01 20:48:00,
2013-05-01 13:54:00,86.0,39.1,29.97,NW,315,4.0,13.0,18,0.00,n/a,n/a,-99.99,Henriksen +1-Wire,2013-05-01 20:54:00,
2013-05-01 14:00:00,86.4,39.1,29.97,NW,309,5.7,11.0,18,0.00,n/a,n/a,-99.99,Henriksen +1-Wire,2013-05-01 21:00:00,
2013-05-01 14:06:00,86.6,38.9,29.98,WNW,290,3.5,10.3,18,0.00,n/a,n/a,-99.99,Henriksen +1-Wire,2013-05-01 21:06:00,
2013-05-01 14:12:00,87.0,39.7,29.97,NW,322,1.4,10.9,18,0.00,n/a,n/a,-99.99,Henriksen +1-Wire,2013-05-01 21:12:00,
2013-05-01 14:18:00,87.3,40.2,29.97,NW,318,4.2,9.1,18,0.00,n/a,n/a,-99.99,Henriksen +1-Wire,2013-05-01 21:18:00,
2013-05-01 14:24:00,87.7,39.8,29.97,NW,309,5.3,10.4,18,0.00,n/a,n/a,-99.99,Henriksen +1-Wire,2013-05-01 21:24:00,
2013-05-01 14:30:00,87.9,39.7,29.97,NW,310,3.0,11.0,17,0.00,n/a,n/a,-99.99,Henriksen +1-Wire,2013-05-01 21:30:00,
2013-05-01 14:36:00,88.1,39.9,29.97,WNW,294,5.4,11.0,17,0.00,n/a,n/a,-99.99,Henriksen +1-Wire,2013-05-01 21:36:00,
2013-05-01 14:42:00,88.2,39.7,29.97,NW,307,3.8,12.3,17,0.00,n/a,n/a,-99.99,Henriksen +1-Wire,2013-05-01 21:42:00,
2013-05-01 14:48:00,88.3,39.2,29.98,NW,304,4.7,12.3,17,0.00,n/a,n/a,-99.99,Henriksen +1-Wire,2013-05-01 21:48:00,
2013-05-01 14:54:00,88.4,39.0,29.98,NW,323,4.9,11.7,17,0.00,n/a,n/a,-99.99,Henriksen +1-Wire,2013-05-01 21:54:00,
2013-05-01 15:00:00,88.4,38.8,29.98,NNW,327,5.1,11.7,17,0.00,n/a,n/a,-99.99,Henriksen +1-Wire,2013-05-01 22:00:00,
2013-05-01 15:06:00,88.4,38.7,29.98,NW,322,6.1,10.4,16,0.00,n/a,n/a,-99.99,Henriksen +1-Wire,2013-05-01 22:06:00,
2013-05-01 15:12:00,88.7,39.2,29.98,West,281,4.9,10.4,17,0.00,n/a,n/a,-99.99,Henriksen +1-Wire,2013-05-01 22:12:00,
2013-05-01 15:18:00,88.9,39.6,29.98,NW,305,4.2,9.7,17,0.00,n/a,n/a,-99.99,Henriksen +1-Wire,2013-05-01 22:18:00,
2013-05-01 15:24:00,88.7,39.2,29.98,NNW,335,3.8,10.4,17,0.00,n/a,n/a,-99.99,Henriksen +1-Wire,2013-05-01 22:24:00,
2013-05-01 15:30:00,88.8,39.2,29.97,NW,326,4.1,8.4,17,0.00,n/a,n/a,-99.99,Henriksen +1-Wire,2013-05-01 22:30:00,
2013-05-01 15:36:00,88.7,39.1,29.97,NNW,330,4.5,11.7,17,0.00,n/a,n/a,-99.99,Henriksen +1-Wire,2013-05-01 22:36:00,
2013-05-01 15:42:00,88.6,38.9,29.97,NW,318,5.7,11.7,16,0.00,n/a,n/a,-99.99,Henriksen +1-Wire,2013-05-01 22:42:00,
2013-05-01 15:48:00,88.7,38.9,29.96,NW,318,2.8,11.7,17,0.00,n/a,n/a,-99.99,Henriksen +1-Wire,2013-05-01 22:48:00,
2013-05-01 15:54:00,89.0,39.3,29.96,WNW,288,6.0,10.4,17,0.00,n/a,n/a,-99.99,Henriksen +1-Wire,2013-05-01 22:54:00,
2013-05-01 16:00:00,89.3,39.5,29.97,WNW,300,4.0,9.7,17,0.00,n/a,n/a,-99.99,Henriksen +1-Wire,2013-05-01 23:00:00,
2013-05-01 16:06:00,89.3,39.4,29.97,NW,315,1.7,9.7,16,0.00,n/a,n/a,-99.99,Henriksen +1-Wire,2013-05-01 23:06:00,
2013-05-01 16:12:00,89.6,40.1,29.96,WNW,295,2.8,8.5,17,0.00,n/a,n/a,-99.99,Henriksen +1-Wire,2013-05-01 23:12:00,
2013-05-01 16:18:00,89.9,40.9,29.96,NW,310,3.1,8.4,17,0.00,n/a,n/a,-99.99,Henriksen +1-Wire,2013-05-01 23:18:00,
2013-05-01 16:24:00,89.8,41.0,29.97,West,281,6.7,12.3,17,0.00,n/a,n/a,-99.99,Henriksen +1-Wire,2013-05-01 23:24:00,
2013-05-01 16:30:00,89.8,41.2,29.96,West,280,7.1,13.6,17,0.00,n/a,n/a,-99.99,Henriksen +1-Wire,2013-05-01 23:30:00,
2013-05-01 16:36:00,89.7,41.2,29.96,WNW,293,4.4,13.6,17,0.00,n/a,n/a,-99.99,Henriksen +1-Wire,2013-05-01 23:36:00,
2013-05-01 16:42:00,89.7,41.2,29.96,NW,314,3.8,13.6,17,0.00,n/a,n/a,-99.99,Henriksen +1-Wire,2013-05-01 23:42:00,
2013-05-01 16:48:00,89.8,41.2,29.96,NW,307,5.8,11.0,17,0.00,n/a,n/a,-99.99,Henriksen +1-Wire,2013-05-01 23:48:00,
2013-05-01 16:54:00,89.7,41.1,29.96,NW,307,4.0,14.3,17,0.00,n/a,n/a,-99.99,Henriksen +1-Wire,2013-05-01 23:54:00,
2013-05-01 17:00:00,89.3,40.8,29.96,WNW,303,6.0,16.2,17,0.00,n/a,n/a,-99.99,Henriksen +1-Wire,2013-05-02 00:00:00,
2013-05-01 17:06:00,89.1,40.9,29.96,WNW,299,5.8,12.7,18,0.00,n/a,n/a,-99.99,Henriksen +1-Wire,2013-05-02 00:06:00,
2013-05-01 17:12:00,89.0,41.3,29.96,WNW,299,6.9,13.0,18,0.00,n/a,n/a,-99.99,Henriksen +1-Wire,2013-05-02 00:12:00,
2013-05-01 17:18:00,88.9,41.2,29.96,NW,305,5.2,13.0,18,0.00,n/a,n/a,-99.99,Henriksen +1-Wire,2013-05-02 00:18:00,
2013-05-01 17:24:00,88.9,41.4,29.96,NW,306,5.4,11.8,18,0.00,n/a,n/a,-99.99,Henriksen +1-Wire,2013-05-02 00:24:00,
2013-05-01 17:30:00,88.8,41.7,29.96,WNW,302,5.3,12.3,18,0.00,n/a,n/a,-99.99,Henriksen +1-Wire,2013-05-02 00:30:00,
2013-05-01 17:36:00,88.7,41.7,29.96,NW,309,6.4,14.3,18,0.00,n/a,n/a,-99.99,Henriksen +1-Wire,2013-05-02 00:36:00,
2013-05-01 17:42:00,88.4,41.5,29.96,NW,306,7.3,14.3,18,0.00,n/a,n/a,-99.99,Henriksen +1-Wire,2013-05-02 00:42:00,
2013-05-01 17:48:00,88.2,41.6,29.96,WNW,299,6.0,13.5,19,0.00,n/a,n/a,-99.99,Henriksen +1-Wire,2013-05-02 00:48:00,
2013-05-01 17:54:00,88.2,41.8,29.96,NW,304,4.0,13.6,19,0.00,n/a,n/a,-99.99,Henriksen +1-Wire,2013-05-02 00:54:00,
2013-05-01 18:00:00,88.1,41.9,29.96,NW,305,4.9,13.6,19,0.00,n/a,n/a,-99.99,Henriksen +1-Wire,2013-05-02 01:00:00,
2013-05-01 18:06:00,88.1,42.0,29.97,NW,304,3.8,13.6,19,0.00,n/a,n/a,-99.99,Henriksen +1-Wire,2013-05-02 01:06:00,
2013-05-01 18:12:00,87.9,42.1,29.97,WNW,298,5.4,13.6,19,0.00,n/a,n/a,-99.99,Henriksen +1-Wire,2013-05-02 01:12:00,
2013-05-01 18:18:00,87.5,41.8,29.96,WNW,299,6.1,14.3,19,0.00,n/a,n/a,-99.99,Henriksen +1-Wire,2013-05-02 01:18:00,
2013-05-01 18:24:00,87.1,41.7,29.97,NW,309,5.7,14.3,19,0.00,n/a,n/a,-99.99,Henriksen +1-Wire,2013-05-02 01:24:00,
2013-05-01 18:30:00,86.8,41.7,29.97,WNW,293,5.1,13.0,20,0.00,n/a,n/a,-99.99,Henriksen +1-Wire,2013-05-02 01:30:00,
2013-05-01 18:36:00,86.5,41.6,29.96,NW,307,4.8,9.7,20,0.00,n/a,n/a,-99.99,Henriksen +1-Wire,2013-05-02 01:36:00,
2013-05-01 18:42:00,86.2,41.5,29.96,WNW,292,3.6,10.4,20,0.00,n/a,n/a,-99.99,Henriksen +1-Wire,2013-05-02 01:42:00,
2013-05-01 18:48:00,86.0,41.6,29.97,NW,305,5.2,11.6,20,0.00,n/a,n/a,-99.99,Henriksen +1-Wire,2013-05-02 01:48:00,
2013-05-01 18:54:00,85.6,41.6,29.97,WNW,288,5.0,14.2,20,0.00,n/a,n/a,-99.99,Henriksen +1-Wire,2013-05-02 01:54:00,
2013-05-01 19:00:00,85.2,41.2,29.97,WNW,294,4.1,14.2,20,0.00,n/a,n/a,-99.99,Henriksen +1-Wire,2013-05-02 02:00:00,
2013-05-01 19:06:00,84.6,40.8,29.97,NW,307,6.9,13.6,20,0.00,n/a,n/a,-99.99,Henriksen +1-Wire,2013-05-02 02:06:00,
2013-05-01 19:12:00,83.9,40.4,29.96,NW,307,4.3,13.6,21,0.00,n/a,n/a,-99.99,Henriksen +1-Wire,2013-05-02 02:12:00,
2013-05-01 19:18:00,83.3,40.2,29.97,WNW,294,4.4,13.6,21,0.00,n/a,n/a,-99.99,Henriksen +1-Wire,2013-05-02 02:18:00,
2013-05-01 19:24:00,82.9,40.0,29.97,WNW,299,4.3,13.0,21,0.00,n/a,n/a,-99.99,Henriksen +1-Wire,2013-05-02 02:24:00,
2013-05-01 19:30:00,82.6,39.8,29.97,WNW,293,4.5,13.0,21,0.00,n/a,n/a,-99.99,Henriksen +1-Wire,2013-05-02 02:30:00,
2013-05-01 19:36:00,82.1,39.5,29.97,NW,304,2.2,10.4,21,0.00,n/a,n/a,-99.99,Henriksen +1-Wire,2013-05-02 02:36:00,
2013-05-01 19:42:00,81.6,39.4,29.97,NW,309,3.7,10.4,21,0.00,n/a,n/a,-99.99,Henriksen +1-Wire,2013-05-02 02:42:00,
2013-05-01 19:48:00,81.2,39.5,29.97,NW,307,3.6,7.8,22,0.00,n/a,n/a,-99.99,Henriksen +1-Wire,2013-05-02 02:48:00,
2013-05-01 19:54:00,80.8,39.4,29.97,WNW,303,2.7,11.0,22,0.00,n/a,n/a,-99.99,Henriksen +1-Wire,2013-05-02 02:54:00,
2013-05-01 20:00:00,80.4,39.2,29.98,WNW,303,2.3,11.0,22,0.00,n/a,n/a,-99.99,Henriksen +1-Wire,2013-05-02 03:00:00,
2013-05-01 20:06:00,80.1,39.2,29.98,WNW,301,2.6,9.1,22,0.00,n/a,n/a,-99.99,Henriksen +1-Wire,2013-05-02 03:06:00,
2013-05-01 20:12:00,79.6,39.1,29.98,West,277,3.0,9.1,23,0.00,n/a,n/a,-99.99,Henriksen +1-Wire,2013-05-02 03:12:00,
2013-05-01 20:18:00,79.3,39.0,29.98,WNW,297,1.3,8.1,23,0.00,n/a,n/a,-99.99,Henriksen +1-Wire,2013-05-02 03:18:00,
2013-05-01 20:24:00,79.0,39.0,29.98,WNW,297,3.4,8.1,23,0.00,n/a,n/a,-99.99,Henriksen +1-Wire,2013-05-02 03:24:00,
2013-05-01 20:30:00,78.6,38.9,29.98,WNW,300,1.7,8.1,23,0.00,n/a,n/a,-99.99,Henriksen +1-Wire,2013-05-02 03:30:00,
2013-05-01 20:36:00,78.2,38.9,29.98,WNW,297,2.5,6.5,24,0.00,n/a,n/a,-99.99,Henriksen +1-Wire,2013-05-02 03:36:00,
2013-05-01 20:42:00,77.8,39.0,29.98,NW,315,0.8,6.5,24,0.00,n/a,n/a,-99.99,Henriksen +1-Wire,2013-05-02 03:42:00,
2013-05-01 20:48:00,77.5,39.1,29.99,NW,304,2.2,7.8,24,0.00,n/a,n/a,-99.99,Henriksen +1-Wire,2013-05-02 03:48:00,
2013-05-01 20:54:00,77.2,39.2,29.99,WNW,293,1.8,6.5,25,0.00,n/a,n/a,-99.99,Henriksen +1-Wire,2013-05-02 03:54:00,
2013-05-01 21:00:00,76.9,39.2,29.99,WNW,302,1.0,6.5,25,0.00,n/a,n/a,-99.99,Henriksen +1-Wire,2013-05-02 04:00:00,
2013-05-01 21:06:00,76.4,39.1,30.00,NW,310,0.9,5.9,25,0.00,n/a,n/a,-99.99,Henriksen +1-Wire,2013-05-02 04:06:00,
2013-05-01 21:12:00,75.9,39.1,29.99,NW,325,1.2,4.5,26,0.00,n/a,n/a,-99.99,Henriksen +1-Wire,2013-05-02 04:12:00,
2013-05-01 21:18:00,75.6,39.2,29.99,NW,323,0.5,4.5,26,0.00,n/a,n/a,-99.99,Henriksen +1-Wire,2013-05-02 04:18:00,
2013-05-01 21:24:00,75.1,39.3,30.00,NNW,335,0.7,4.5,27,0.00,n/a,n/a,-99.99,Henriksen +1-Wire,2013-05-02 04:24:00,
2013-05-01 21:30:00,74.7,39.3,30.01,NNW,330,0.7,3.3,27,0.00,n/a,n/a,-99.99,Henriksen +1-Wire,2013-05-02 04:30:00,
2013-05-01 21:36:00,74.2,39.7,30.01,NNW,333,0.6,3.3,28,0.00,n/a,n/a,-99.99,Henriksen +1-Wire,2013-05-02 04:36:00,
2013-05-01 21:42:00,73.7,39.8,30.01,NNW,336,0.6,1.3,28,0.00,n/a,n/a,-99.99,Henriksen +1-Wire,2013-05-02 04:42:00,
2013-05-01 21:48:00,73.3,39.9,30.01,NW,319,0.7,3.9,29,0.00,n/a,n/a,-99.99,Henriksen +1-Wire,2013-05-02 04:48:00,
2013-05-01 21:54:00,72.9,40.1,30.01,WNW,285,0.1,3.2,30,0.00,n/a,n/a,-99.99,Henriksen +1-Wire,2013-05-02 04:54:00,
2013-05-01 22:00:00,72.2,40.1,30.02,WNW,291,0.4,1.9,30,0.00,n/a,n/a,-99.99,Henriksen +1-Wire,2013-05-02 05:00:00,
2013-05-01 22:06:00,71.5,40.1,30.02,West,264,0.6,0.8,31,0.00,n/a,n/a,-99.99,Henriksen +1-Wire,2013-05-02 05:06:00,
2013-05-01 22:12:00,70.9,40.2,30.02,WSW,256,0.6,0.8,32,0.00,n/a,n/a,-99.99,Henriksen +1-Wire,2013-05-02 05:12:00,
2013-05-01 22:18:00,70.2,40.4,30.02,SW,230,0.6,0.8,33,0.00,n/a,n/a,-99.99,Henriksen +1-Wire,2013-05-02 05:18:00,
2013-05-01 22:24:00,69.2,40.3,30.03,South,177,0.6,0.8,34,0.00,n/a,n/a,-99.99,Henriksen +1-Wire,2013-05-02 05:24:00,
2013-05-01 22:30:00,68.2,40.3,30.03,South,179,0.6,0.8,35,0.00,n/a,n/a,-99.99,Henriksen +1-Wire,2013-05-02 05:30:00,
2013-05-01 22:36:00,67.4,40.7,30.03,South,178,0.6,0.8,37,0.00,n/a,n/a,-99.99,Henriksen +1-Wire,2013-05-02 05:36:00,
2013-05-01 22:42:00,66.4,40.9,30.03,South,176,0.6,0.8,38,0.00,n/a,n/a,-99.99,Henriksen +1-Wire,2013-05-02 05:42:00,
2013-05-01 22:48:00,65.5,41.3,30.03,South,179,0.6,0.8,40,0.00,n/a,n/a,-99.99,Henriksen +1-Wire,2013-05-02 05:48:00,
2013-05-01 22:54:00,65.0,41.8,30.03,SSW,201,0.6,0.8,42,0.00,n/a,n/a,-99.99,Henriksen +1-Wire,2013-05-02 05:54:00,
2013-05-01 23:00:00,64.7,42.3,30.03,NNW,335,0.6,0.8,43,0.00,n/a,n/a,-99.99,Henriksen +1-Wire,2013-05-02 06:00:00,
2013-05-01 23:06:00,64.5,42.5,30.04,North,356,0.6,0.8,44,0.00,n/a,n/a,-99.99,Henriksen +1-Wire,2013-05-02 06:06:00,
2013-05-01 23:12:00,64.3,42.6,30.04,North,355,0.6,0.8,44,0.00,n/a,n/a,-99.99,Henriksen +1-Wire,2013-05-02 06:12:00,
2013-05-01 23:18:00,63.9,42.7,30.04,North,358,0.6,0.8,45,0.00,n/a,n/a,-99.99,Henriksen +1-Wire,2013-05-02 06:18:00,
2013-05-01 23:24:00,63.4,42.7,30.04,North,1,0.6,0.8,46,0.00,n/a,n/a,-99.99,Henriksen +1-Wire,2013-05-02 06:24:00,
2013-05-01 23:30:00,63.1,42.9,30.04,NW,314,0.6,0.8,47,0.00,n/a,n/a,-99.99,Henriksen +1-Wire,2013-05-02 06:30:00,
2013-05-01 23:36:00,63.0,43.3,30.04,NW,310,0.6,0.8,48,0.00,n/a,n/a,-99.99,Henriksen +1-Wire,2013-05-02 06:36:00,
2013-05-01 23:42:00,62.9,43.4,30.05,West,259,0.6,0.8,48,0.00,n/a,n/a,-99.99,Henriksen +1-Wire,2013-05-02 06:42:00,
2013-05-01 23:48:00,62.8,43.6,30.05,WNW,301,0.6,0.8,49,0.00,n/a,n/a,-99.99,Henriksen +1-Wire,2013-05-02 06:48:00,
2013-05-01 23:54:00,62.7,43.9,30.05,NW,310,0.6,0.8,49,0.00,n/a,n/a,-99.99,Henriksen +1-Wire,2013-05-02 06:54:00,